sensor_id;sensor_type;location;lat;lon;timestamp;pressure;altitude;pressure_sealevel;temperature;humidity
11077;BME280;5591;42.626;23.380;2023-03-19T00:02:25;94714.41;;;2.65;100.00
11077;BME280;5591;42.626;23.380;2023-03-19T00:04:52;94710.94;;;2.55;100.00
11077;BME280;5591;42.626;23.380;2023-03-19T00:07:19;94718.13;;;2.51;100.00
11077;BME280;5591;42.626;23.380;2023-03-19T00:09:46;94713.34;;;2.47;100.00
11077;BME280;5591;42.626;23.380;2023-03-19T00:12:13;94713.97;;;2.39;100.00
11077;BME280;5591;42.626;23.380;2023-03-19T00:14:40;94706.34;;;2.38;100.00
11077;BME280;5591;42.626;23.380;2023-03-19T00:17:07;94711.19;;;2.32;100.00
11077;BME280;5591;42.626;23.380;2023-03-19T00:19:35;94704.53;;;2.29;100.00
11077;BME280;5591;42.626;23.380;2023-03-19T00:22:02;94654.34;;;2.00;100.00
11077;BME280;5591;42.626;23.380;2023-03-19T00:24:29;94698.09;;;2.24;100.00
11077;BME280;5591;42.626;23.380;2023-03-19T00:26:57;94699.38;;;2.18;100.00
11077;BME280;5591;42.626;23.380;2023-03-19T00:29:23;94692.78;;;2.25;100.00
11077;BME280;5591;42.626;23.380;2023-03-19T00:31:50;94688.16;;;2.29;100.00
11077;BME280;5591;42.626;23.380;2023-03-19T00:34:17;94691.19;;;2.33;100.00
11077;BME280;5591;42.626;23.380;2023-03-19T00:36:46;94690.88;;;2.27;100.00
11077;BME280;5591;42.626;23.380;2023-03-19T00:39:13;94689.22;;;2.26;100.00
11077;BME280;5591;42.626;23.380;2023-03-19T00:41:40;94684.31;;;2.23;100.00
11077;BME280;5591;42.626;23.380;2023-03-19T00:44:14;94684.63;;;2.30;100.00
11077;BME280;5591;42.626;23.380;2023-03-19T00:46:41;94686.84;;;2.34;100.00
11077;BME280;5591;42.626;23.380;2023-03-19T00:49:08;94683.59;;;2.41;100.00
11077;BME280;5591;42.626;23.380;2023-03-19T00:51:35;94684.44;;;2.42;100.00
11077;BME280;5591;42.626;23.380;2023-03-19T00:54:03;94676.28;;;2.46;100.00
11077;BME280;5591;42.626;23.380;2023-03-19T00:56:30;94676.00;;;2.49;100.00
11077;BME280;5591;42.626;23.380;2023-03-19T00:58:57;94634.25;;;2.13;100.00
11077;BME280;5591;42.626;23.380;2023-03-19T01:01:24;94676.59;;;2.53;100.00
11077;BME280;5591;42.626;23.380;2023-03-19T01:03:51;94681.41;;;2.67;100.00
11077;BME280;5591;42.626;23.380;2023-03-19T01:06:17;94675.84;;;2.71;100.00
11077;BME280;5591;42.626;23.380;2023-03-19T01:08:44;94670.91;;;2.68;100.00
11077;BME280;5591;42.626;23.380;2023-03-19T01:11:13;94665.44;;;2.62;100.00
11077;BME280;5591;42.626;23.380;2023-03-19T01:13:41;94671.72;;;2.69;100.00
11077;BME280;5591;42.626;23.380;2023-03-19T01:16:09;94668.06;;;2.71;100.00
11077;BME280;5591;42.626;23.380;2023-03-19T01:18:36;94696.69;;;2.70;100.00
11077;BME280;5591;42.626;23.380;2023-03-19T01:21:03;94673.38;;;2.70;100.00
11077;BME280;5591;42.626;23.380;2023-03-19T01:23:30;94667.59;;;2.57;100.00
11077;BME280;5591;42.626;23.380;2023-03-19T01:25:57;94671.47;;;2.42;100.00
11077;BME280;5591;42.626;23.380;2023-03-19T01:28:25;94660.97;;;2.43;100.00
11077;BME280;5591;42.626;23.380;2023-03-19T01:30:52;94658.34;;;2.34;100.00
11077;BME280;5591;42.626;23.380;2023-03-19T01:33:19;94659.31;;;2.13;100.00
11077;BME280;5591;42.626;23.380;2023-03-19T01:35:46;94660.84;;;1.95;100.00
11077;BME280;5591;42.626;23.380;2023-03-19T01:38:13;94655.31;;;1.99;100.00
11077;BME280;5591;42.626;23.380;2023-03-19T01:40:44;94653.81;;;2.06;100.00
11077;BME280;5591;42.626;23.380;2023-03-19T01:43:14;94653.84;;;1.86;100.00
11077;BME280;5591;42.626;23.380;2023-03-19T01:45:44;94680.28;;;1.89;100.00
11077;BME280;5591;42.626;23.380;2023-03-19T01:48:26;94657.56;;;1.93;100.00
11077;BME280;5591;42.626;23.380;2023-03-19T01:50:54;94657.00;;;1.89;100.00
11077;BME280;5591;42.626;23.380;2023-03-19T01:53:24;94586.06;;;1.30;100.00
11077;BME280;5591;42.626;23.380;2023-03-19T01:55:54;94663.25;;;1.87;100.00
11077;BME280;5591;42.626;23.380;2023-03-19T01:58:22;94553.47;;;1.18;100.00
11077;BME280;5591;42.626;23.380;2023-03-19T02:00:52;94658.06;;;1.87;100.00
11077;BME280;5591;42.626;23.380;2023-03-19T02:03:19;94659.91;;;1.96;100.00
11077;BME280;5591;42.626;23.380;2023-03-19T02:05:48;94656.00;;;2.01;100.00
11077;BME280;5591;42.626;23.380;2023-03-19T02:08:18;94610.63;;;1.56;100.00
11077;BME280;5591;42.626;23.380;2023-03-19T02:10:47;94611.63;;;1.65;100.00
11077;BME280;5591;42.626;23.380;2023-03-19T02:13:14;94668.66;;;2.04;100.00
11077;BME280;5591;42.626;23.380;2023-03-19T02:15:41;94654.34;;;2.00;100.00
11077;BME280;5591;42.626;23.380;2023-03-19T02:18:09;94661.06;;;2.03;100.00
11077;BME280;5591;42.626;23.380;2023-03-19T02:20:43;94659.97;;;1.85;100.00
11077;BME280;5591;42.626;23.380;2023-03-19T02:23:16;94661.59;;;1.86;100.00
11077;BME280;5591;42.626;23.380;2023-03-19T02:26:06;94661.97;;;1.81;100.00
11077;BME280;5591;42.626;23.380;2023-03-19T02:28:36;94666.78;;;1.65;100.00
11077;BME280;5591;42.626;23.380;2023-03-19T02:31:05;94665.25;;;1.63;100.00
11077;BME280;5591;42.626;23.380;2023-03-19T02:33:31;94665.00;;;1.66;100.00
11077;BME280;5591;42.626;23.380;2023-03-19T02:35:59;94665.38;;;1.61;100.00
11077;BME280;5591;42.626;23.380;2023-03-19T02:38:29;94671.47;;;1.60;100.00
11077;BME280;5591;42.626;23.380;2023-03-19T02:41:00;94567.09;;;0.89;100.00
11077;BME280;5591;42.626;23.380;2023-03-19T02:43:30;94668.09;;;1.49;100.00
11077;BME280;5591;42.626;23.380;2023-03-19T02:45:58;94667.06;;;1.51;100.00
11077;BME280;5591;42.626;23.380;2023-03-19T02:48:25;94668.09;;;1.49;100.00
11077;BME280;5591;42.626;23.380;2023-03-19T02:50:52;94663.38;;;1.33;100.00
11077;BME280;5591;42.626;23.380;2023-03-19T02:53:19;94659.81;;;1.45;100.00
11077;BME280;5591;42.626;23.380;2023-03-19T02:55:46;94658.50;;;1.51;100.00
11077;BME280;5591;42.626;23.380;2023-03-19T02:58:13;94669.63;;;1.51;100.00
11077;BME280;5591;42.626;23.380;2023-03-19T03:00:41;94557.34;;;0.92;100.00
11077;BME280;5591;42.626;23.380;2023-03-19T03:03:09;94658.22;;;1.54;100.00
11077;BME280;5591;42.626;23.380;2023-03-19T03:05:36;94665.72;;;1.57;100.00
11077;BME280;5591;42.626;23.380;2023-03-19T03:08:03;94662.16;;;1.69;100.00
11077;BME280;5591;42.626;23.380;2023-03-19T03:10:30;94651.25;;;1.65;100.00
11077;BME280;5591;42.626;23.380;2023-03-19T03:12:58;94663.19;;;1.77;100.00
11077;BME280;5591;42.626;23.380;2023-03-19T03:15:25;94666.00;;;1.74;100.00
11077;BME280;5591;42.626;23.380;2023-03-19T03:17:53;94678.28;;;1.61;100.00
11077;BME280;5591;42.626;23.380;2023-03-19T03:20:21;94669.31;;;1.76;100.00
11077;BME280;5591;42.626;23.380;2023-03-19T03:22:49;94709.03;;;1.75;100.00
11077;BME280;5591;42.626;23.380;2023-03-19T03:25:16;94690.69;;;1.78;100.00
11077;BME280;5591;42.626;23.380;2023-03-19T03:27:43;94681.84;;;1.81;100.00
11077;BME280;5591;42.626;23.380;2023-03-19T03:30:10;94687.59;;;1.84;100.00
11077;BME280;5591;42.626;23.380;2023-03-19T03:32:38;94686.09;;;1.82;100.00
11077;BME280;5591;42.626;23.380;2023-03-19T03:35:07;94691.38;;;1.80;100.00
11077;BME280;5591;42.626;23.380;2023-03-19T03:37:34;94698.44;;;1.78;100.00
11077;BME280;5591;42.626;23.380;2023-03-19T03:40:02;94699.19;;;1.69;100.00
11077;BME280;5591;42.626;23.380;2023-03-19T03:42:33;94694.66;;;1.62;100.00
11077;BME280;5591;42.626;23.380;2023-03-19T03:45:00;94699.03;;;1.50;100.00
11077;BME280;5591;42.626;23.380;2023-03-19T03:47:27;94702.44;;;1.51;100.00
11077;BME280;5591;42.626;23.380;2023-03-19T03:49:54;94709.13;;;1.53;100.00
11077;BME280;5591;42.626;23.380;2023-03-19T03:52:22;94701.13;;;1.56;100.00
11077;BME280;5591;42.626;23.380;2023-03-19T03:54:49;94703.25;;;1.51;100.00
11077;BME280;5591;42.626;23.380;2023-03-19T03:57:16;94708.19;;;1.43;100.00
11077;BME280;5591;42.626;23.380;2023-03-19T03:59:42;94700.09;;;1.48;100.00
11077;BME280;5591;42.626;23.380;2023-03-19T04:02:09;94701.50;;;1.52;100.00
11077;BME280;5591;42.626;23.380;2023-03-19T04:04:36;94694.09;;;1.47;100.00
11077;BME280;5591;42.626;23.380;2023-03-19T04:07:03;94700.28;;;1.56;100.00
11077;BME280;5591;42.626;23.380;2023-03-19T04:09:32;94696.06;;;1.55;100.00
11077;BME280;5591;42.626;23.380;2023-03-19T04:11:59;94686.75;;;1.63;100.00
11077;BME280;5591;42.626;23.380;2023-03-19T04:14:26;94694.22;;;1.77;100.00
11077;BME280;5591;42.626;23.380;2023-03-19T04:16:53;94693.38;;;1.77;100.00
11077;BME280;5591;42.626;23.380;2023-03-19T04:19:20;94695.19;;;1.76;100.00
11077;BME280;5591;42.626;23.380;2023-03-19T04:21:47;94686.16;;;1.71;100.00
11077;BME280;5591;42.626;23.380;2023-03-19T04:24:14;94611.00;;;1.20;100.00
11077;BME280;5591;42.626;23.380;2023-03-19T04:26:42;94701.78;;;1.69;100.00
11077;BME280;5591;42.626;23.380;2023-03-19T04:29:11;94705.31;;;1.68;100.00
11077;BME280;5591;42.626;23.380;2023-03-19T04:31:38;94703.22;;;1.62;100.00
11077;BME280;5591;42.626;23.380;2023-03-19T04:34:05;94711.69;;;1.53;100.00
11077;BME280;5591;42.626;23.380;2023-03-19T04:36:32;94714.00;;;1.36;100.00
11077;BME280;5591;42.626;23.380;2023-03-19T04:38:59;94608.47;;;0.78;100.00
11077;BME280;5591;42.626;23.380;2023-03-19T04:41:26;94708.50;;;1.29;100.00
11077;BME280;5591;42.626;23.380;2023-03-19T04:43:54;94700.88;;;1.28;100.00
11077;BME280;5591;42.626;23.380;2023-03-19T04:46:21;94704.69;;;1.44;100.00
11077;BME280;5591;42.626;23.380;2023-03-19T04:48:47;94703.75;;;1.45;100.00
11077;BME280;5591;42.626;23.380;2023-03-19T04:51:15;94705.84;;;1.51;100.00
11077;BME280;5591;42.626;23.380;2023-03-19T04:53:41;94710.19;;;1.51;100.00
11077;BME280;5591;42.626;23.380;2023-03-19T04:56:09;94708.63;;;1.59;100.00
11077;BME280;5591;42.626;23.380;2023-03-19T04:58:35;94706.16;;;1.58;100.00
11077;BME280;5591;42.626;23.380;2023-03-19T05:01:04;94700.94;;;1.69;100.00
11077;BME280;5591;42.626;23.380;2023-03-19T05:03:30;94711.91;;;1.93;100.00
11077;BME280;5591;42.626;23.380;2023-03-19T05:05:57;94701.31;;;1.96;100.00
11077;BME280;5591;42.626;23.380;2023-03-19T05:08:24;94703.25;;;1.83;100.00
11077;BME280;5591;42.626;23.380;2023-03-19T05:10:51;94707.00;;;1.79;100.00
11077;BME280;5591;42.626;23.380;2023-03-19T05:13:18;94703.25;;;1.83;100.00
11077;BME280;5591;42.626;23.380;2023-03-19T05:15:45;94711.03;;;2.03;100.00
11077;BME280;5591;42.626;23.380;2023-03-19T05:18:14;94697.31;;;2.12;100.00
11077;BME280;5591;42.626;23.380;2023-03-19T05:20:41;94709.94;;;2.26;100.00
11077;BME280;5591;42.626;23.380;2023-03-19T05:23:08;94707.22;;;2.48;100.00
11077;BME280;5591;42.626;23.380;2023-03-19T05:25:35;94709.78;;;2.48;100.00
11077;BME280;5591;42.626;23.380;2023-03-19T05:28:03;94716.03;;;2.66;100.00
11077;BME280;5591;42.626;23.380;2023-03-19T05:30:30;94715.84;;;2.88;100.00
11077;BME280;5591;42.626;23.380;2023-03-19T05:32:57;94707.19;;;2.68;100.00
11077;BME280;5591;42.626;23.380;2023-03-19T05:35:27;94714.97;;;3.08;100.00
11077;BME280;5591;42.626;23.380;2023-03-19T05:37:54;94709.50;;;3.11;100.00
11077;BME280;5591;42.626;23.380;2023-03-19T05:40:21;94622.78;;;2.75;100.00
11077;BME280;5591;42.626;23.380;2023-03-19T05:42:48;94706.06;;;3.50;100.00
11077;BME280;5591;42.626;23.380;2023-03-19T05:45:15;94707.81;;;3.40;100.00
11077;BME280;5591;42.626;23.380;2023-03-19T05:47:42;94703.63;;;3.58;100.00
11077;BME280;5591;42.626;23.380;2023-03-19T05:50:10;94706.75;;;3.80;100.00
11077;BME280;5591;42.626;23.380;2023-03-19T05:52:38;94703.63;;;3.86;100.00
11077;BME280;5591;42.626;23.380;2023-03-19T05:55:06;94705.56;;;3.84;100.00
11077;BME280;5591;42.626;23.380;2023-03-19T05:57:33;94700.75;;;3.89;100.00
11077;BME280;5591;42.626;23.380;2023-03-19T05:59:59;94706.50;;;3.93;100.00
11077;BME280;5591;42.626;23.380;2023-03-19T06:02:26;94712.09;;;4.26;100.00
11077;BME280;5591;42.626;23.380;2023-03-19T06:04:53;94701.00;;;4.24;100.00
11077;BME280;5591;42.626;23.380;2023-03-19T06:07:20;94635.31;;;4.05;100.00
11077;BME280;5591;42.626;23.380;2023-03-19T06:09:48;94707.97;;;4.43;100.00
11077;BME280;5591;42.626;23.380;2023-03-19T06:12:15;94701.06;;;4.70;100.00
11077;BME280;5591;42.626;23.380;2023-03-19T06:14:42;94700.72;;;4.82;100.00
11077;BME280;5591;42.626;23.380;2023-03-19T06:17:09;94703.53;;;4.98;100.00
11077;BME280;5591;42.626;23.380;2023-03-19T06:19:35;94714.75;;;4.99;99.57
11077;BME280;5591;42.626;23.380;2023-03-19T06:22:02;94710.44;;;5.17;98.94
11077;BME280;5591;42.626;23.380;2023-03-19T06:24:29;94711.78;;;5.21;97.62
11077;BME280;5591;42.626;23.380;2023-03-19T06:26:57;94704.28;;;5.45;96.70
11077;BME280;5591;42.626;23.380;2023-03-19T06:29:24;94680.81;;;5.27;94.79
11077;BME280;5591;42.626;23.380;2023-03-19T06:31:51;94700.13;;;5.69;91.94
11077;BME280;5591;42.626;23.380;2023-03-19T06:34:18;94710.97;;;6.09;90.08
11077;BME280;5591;42.626;23.380;2023-03-19T06:36:45;94715.59;;;6.15;89.08
11077;BME280;5591;42.626;23.380;2023-03-19T06:39:12;94723.41;;;5.98;89.10
11077;BME280;5591;42.626;23.380;2023-03-19T06:41:39;94723.09;;;6.01;89.16
11077;BME280;5591;42.626;23.380;2023-03-19T06:44:08;94721.34;;;5.74;91.65
11077;BME280;5591;42.626;23.380;2023-03-19T06:46:34;94727.03;;;6.22;89.47
11077;BME280;5591;42.626;23.380;2023-03-19T06:49:01;94723.00;;;6.45;85.30
11077;BME280;5591;42.626;23.380;2023-03-19T06:51:28;94729.31;;;6.60;83.75
11077;BME280;5591;42.626;23.380;2023-03-19T06:53:55;94728.94;;;6.38;82.77
11077;BME280;5591;42.626;23.380;2023-03-19T06:56:22;94735.03;;;6.64;83.52
11077;BME280;5591;42.626;23.380;2023-03-19T06:58:49;94724.41;;;6.57;82.66
11077;BME280;5591;42.626;23.380;2023-03-19T07:01:17;94739.03;;;6.76;81.02
11077;BME280;5591;42.626;23.380;2023-03-19T07:03:44;94734.53;;;7.11;77.17
11077;BME280;5591;42.626;23.380;2023-03-19T07:06:11;94738.34;;;7.25;74.69
11077;BME280;5591;42.626;23.380;2023-03-19T07:08:38;94728.91;;;7.31;74.67
11077;BME280;5591;42.626;23.380;2023-03-19T07:11:10;94733.41;;;7.22;74.23
11077;BME280;5591;42.626;23.380;2023-03-19T07:13:37;94737.53;;;7.57;72.80
11077;BME280;5591;42.626;23.380;2023-03-19T07:16:05;94738.31;;;7.17;73.50
11077;BME280;5591;42.626;23.380;2023-03-19T07:18:33;94739.38;;;7.06;76.37
11077;BME280;5591;42.626;23.380;2023-03-19T07:21:00;94736.41;;;7.27;75.78
11077;BME280;5591;42.626;23.380;2023-03-19T07:23:27;94727.94;;;7.32;74.81
11077;BME280;5591;42.626;23.380;2023-03-19T07:25:53;94736.28;;;7.77;73.60
11077;BME280;5591;42.626;23.380;2023-03-19T07:28:20;94732.91;;;8.01;70.84
11077;BME280;5591;42.626;23.380;2023-03-19T07:30:47;94726.09;;;8.24;69.20
11077;BME280;5591;42.626;23.380;2023-03-19T07:33:16;94697.34;;;8.24;68.14
11077;BME280;5591;42.626;23.380;2023-03-19T07:35:44;94725.63;;;8.36;67.13
11077;BME280;5591;42.626;23.380;2023-03-19T07:38:11;94718.34;;;7.90;69.98
11077;BME280;5591;42.626;23.380;2023-03-19T07:40:39;94728.34;;;8.11;67.95
11077;BME280;5591;42.626;23.380;2023-03-19T07:43:06;94723.44;;;7.50;68.86
11077;BME280;5591;42.626;23.380;2023-03-19T07:45:33;94731.06;;;7.85;69.28
11077;BME280;5591;42.626;23.380;2023-03-19T07:47:59;94717.59;;;8.46;67.86
11077;BME280;5591;42.626;23.380;2023-03-19T07:50:27;94722.81;;;8.86;65.75
11077;BME280;5591;42.626;23.380;2023-03-19T07:52:56;94719.56;;;9.00;64.62
11077;BME280;5591;42.626;23.380;2023-03-19T07:55:23;94724.72;;;9.16;63.21
11077;BME280;5591;42.626;23.380;2023-03-19T07:57:50;94723.31;;;8.89;64.08
11077;BME280;5591;42.626;23.380;2023-03-19T08:00:17;94720.41;;;8.36;64.47
11077;BME280;5591;42.626;23.380;2023-03-19T08:02:44;94726.09;;;8.24;65.44
11077;BME280;5591;42.626;23.380;2023-03-19T08:05:11;94725.44;;;8.78;64.27
11077;BME280;5591;42.626;23.380;2023-03-19T08:07:38;94716.28;;;8.90;63.48
11077;BME280;5591;42.626;23.380;2023-03-19T08:10:07;94731.66;;;8.85;62.94
11077;BME280;5591;42.626;23.380;2023-03-19T08:12:34;94735.28;;;8.28;65.38
11077;BME280;5591;42.626;23.380;2023-03-19T08:15:06;94719.22;;;8.87;62.79
11077;BME280;5591;42.626;23.380;2023-03-19T08:17:34;94731.47;;;9.10;60.98
11077;BME280;5591;42.626;23.380;2023-03-19T08:20:04;94733.63;;;8.83;62.47
11077;BME280;5591;42.626;23.380;2023-03-19T08:22:31;94725.50;;;9.40;60.55
11077;BME280;5591;42.626;23.380;2023-03-19T08:24:57;94731.03;;;9.45;59.97
11077;BME280;5591;42.626;23.380;2023-03-19T08:27:26;94725.94;;;9.90;59.65
11077;BME280;5591;42.626;23.380;2023-03-19T08:29:54;94727.25;;;8.85;60.59
11077;BME280;5591;42.626;23.380;2023-03-19T08:32:21;94728.63;;;9.36;60.28
11077;BME280;5591;42.626;23.380;2023-03-19T08:34:49;94722.78;;;10.02;58.41
11077;BME280;5591;42.626;23.380;2023-03-19T08:37:16;94715.44;;;10.43;57.09
11077;BME280;5591;42.626;23.380;2023-03-19T08:39:43;94718.59;;;10.61;56.38
11077;BME280;5591;42.626;23.380;2023-03-19T08:42:10;94712.28;;;10.33;55.03
11077;BME280;5591;42.626;23.380;2023-03-19T08:44:38;94717.22;;;9.13;56.89
11077;BME280;5591;42.626;23.380;2023-03-19T08:47:05;94703.63;;;9.17;56.71
11077;BME280;5591;42.626;23.380;2023-03-19T08:49:32;94709.50;;;9.19;57.41
11077;BME280;5591;42.626;23.380;2023-03-19T08:51:59;94708.50;;;9.28;56.69
11077;BME280;5591;42.626;23.380;2023-03-19T08:54:25;94698.44;;;9.78;56.27
11077;BME280;5591;42.626;23.380;2023-03-19T08:56:52;94700.84;;;10.26;55.10
11077;BME280;5591;42.626;23.380;2023-03-19T08:59:19;94691.03;;;10.79;53.68
11077;BME280;5591;42.626;23.380;2023-03-19T09:01:50;94693.19;;;11.13;52.46
11077;BME280;5591;42.626;23.380;2023-03-19T09:04:17;94595.97;;;10.18;51.73
11077;BME280;5591;42.626;23.380;2023-03-19T09:06:44;94689.28;;;10.35;52.31
11077;BME280;5591;42.626;23.380;2023-03-19T09:09:15;94686.25;;;10.83;52.17
11077;BME280;5591;42.626;23.380;2023-03-19T09:11:42;94686.56;;;11.31;51.35
11077;BME280;5591;42.626;23.380;2023-03-19T09:14:09;94682.41;;;11.08;51.12
11077;BME280;5591;42.626;23.380;2023-03-19T09:16:36;94665.19;;;11.34;51.00
11077;BME280;5591;42.626;23.380;2023-03-19T09:19:05;94673.44;;;11.02;50.18
11077;BME280;5591;42.626;23.380;2023-03-19T09:21:31;94604.41;;;11.23;50.28
11077;BME280;5591;42.626;23.380;2023-03-19T09:23:58;94671.31;;;10.83;51.18
11077;BME280;5591;42.626;23.380;2023-03-19T09:26:25;94691.44;;;10.54;51.19
11077;BME280;5591;42.626;23.380;2023-03-19T09:28:52;94678.38;;;10.46;51.88
11077;BME280;5591;42.626;23.380;2023-03-19T09:31:19;94676.34;;;11.22;50.33
11077;BME280;5591;42.626;23.380;2023-03-19T09:33:45;94648.97;;;11.16;50.48
11077;BME280;5591;42.626;23.380;2023-03-19T09:36:13;94673.88;;;11.78;48.79
11077;BME280;5591;42.626;23.380;2023-03-19T09:38:40;94681.47;;;10.49;50.78
11077;BME280;5591;42.626;23.380;2023-03-19T09:41:09;94677.50;;;11.19;49.82
11077;BME280;5591;42.626;23.380;2023-03-19T09:43:55;94523.50;;;10.02;50.02
11077;BME280;5591;42.626;23.380;2023-03-19T09:46:27;94669.66;;;10.68;50.50
11077;BME280;5591;42.626;23.380;2023-03-19T09:48:57;94674.19;;;10.74;51.06
11077;BME280;5591;42.626;23.380;2023-03-19T09:51:32;94636.38;;;11.26;50.97
11077;BME280;5591;42.626;23.380;2023-03-19T09:54:03;94660.28;;;11.75;50.45
11077;BME280;5591;42.626;23.380;2023-03-19T09:56:33;94663.22;;;11.86;50.88
11077;BME280;5591;42.626;23.380;2023-03-19T09:59:00;94646.91;;;12.12;49.28
11077;BME280;5591;42.626;23.380;2023-03-19T10:01:29;94648.56;;;12.82;48.38
11077;BME280;5591;42.626;23.380;2023-03-19T10:04:11;94640.50;;;13.11;48.49
11077;BME280;5591;42.626;23.380;2023-03-19T10:06:43;94633.41;;;13.11;47.91
11077;BME280;5591;42.626;23.380;2023-03-19T10:09:27;94649.56;;;12.32;48.11
11077;BME280;5591;42.626;23.380;2023-03-19T10:12:06;94641.38;;;12.42;49.21
11077;BME280;5591;42.626;23.380;2023-03-19T10:15:01;94635.91;;;12.71;48.83
11077;BME280;5591;42.626;23.380;2023-03-19T10:17:31;94630.03;;;12.69;47.77
11077;BME280;5591;42.626;23.380;2023-03-19T10:20:04;94627.00;;;13.20;47.31
11077;BME280;5591;42.626;23.380;2023-03-19T10:22:37;94629.97;;;13.98;46.32
11077;BME280;5591;42.626;23.380;2023-03-19T10:25:10;94620.19;;;13.99;45.57
11077;BME280;5591;42.626;23.380;2023-03-19T10:27:39;94623.28;;;14.09;44.82
11077;BME280;5591;42.626;23.380;2023-03-19T10:30:15;94620.19;;;12.77;45.99
11077;BME280;5591;42.626;23.380;2023-03-19T10:32:43;94615.50;;;13.00;45.90
11077;BME280;5591;42.626;23.380;2023-03-19T10:35:17;94600.38;;;13.15;45.26
11077;BME280;5591;42.626;23.380;2023-03-19T10:37:47;94605.66;;;13.15;45.20
11077;BME280;5591;42.626;23.380;2023-03-19T10:40:20;94593.16;;;13.30;45.78
11077;BME280;5591;42.626;23.380;2023-03-19T10:43:03;94600.94;;;14.11;44.75
11077;BME280;5591;42.626;23.380;2023-03-19T10:45:32;94593.72;;;14.65;43.65
11077;BME280;5591;42.626;23.380;2023-03-19T10:48:01;94586.41;;;14.28;43.58
11077;BME280;5591;42.626;23.380;2023-03-19T10:50:31;94575.72;;;13.29;45.37
11077;BME280;5591;42.626;23.380;2023-03-19T10:53:04;94588.44;;;14.39;43.58
11077;BME280;5591;42.626;23.380;2023-03-19T10:55:33;94577.03;;;14.91;42.76
11077;BME280;5591;42.626;23.380;2023-03-19T10:58:06;94565.03;;;14.94;42.19
11077;BME280;5591;42.626;23.380;2023-03-19T11:00:45;94534.53;;;13.75;43.33
11077;BME280;5591;42.626;23.380;2023-03-19T11:03:28;94560.00;;;14.28;43.34
11077;BME280;5591;42.626;23.380;2023-03-19T11:06:15;94575.38;;;15.09;42.79
11077;BME280;5591;42.626;23.380;2023-03-19T11:08:55;94551.06;;;14.42;43.29
11077;BME280;5591;42.626;23.380;2023-03-19T11:11:23;94550.47;;;14.40;43.25
11077;BME280;5591;42.626;23.380;2023-03-19T11:13:51;94547.91;;;15.10;42.85
11077;BME280;5591;42.626;23.380;2023-03-19T11:16:18;94499.38;;;15.48;41.73
11077;BME280;5591;42.626;23.380;2023-03-19T11:18:46;94525.84;;;15.86;41.14
11077;BME280;5591;42.626;23.380;2023-03-19T11:21:22;94442.19;;;15.47;41.14
11077;BME280;5591;42.626;23.380;2023-03-19T11:23:58;94521.22;;;15.81;41.53
11077;BME280;5591;42.626;23.380;2023-03-19T11:26:26;94505.53;;;16.42;40.18
11077;BME280;5591;42.626;23.380;2023-03-19T11:28:53;94510.34;;;16.94;40.48
11077;BME280;5591;42.626;23.380;2023-03-19T11:31:26;94510.34;;;17.30;39.21
11077;BME280;5591;42.626;23.380;2023-03-19T11:34:10;94504.50;;;17.03;38.87
11077;BME280;5591;42.626;23.380;2023-03-19T11:36:48;94499.22;;;17.39;38.28
11077;BME280;5591;42.626;23.380;2023-03-19T11:39:26;94494.44;;;17.77;40.46
11077;BME280;5591;42.626;23.380;2023-03-19T11:42:03;94471.34;;;18.07;38.17
11077;BME280;5591;42.626;23.380;2023-03-19T11:44:40;94465.06;;;18.54;36.89
11077;BME280;5591;42.626;23.380;2023-03-19T11:47:12;94494.59;;;18.23;37.38
11077;BME280;5591;42.626;23.380;2023-03-19T11:49:50;94464.50;;;20.98;36.83
11077;BME280;5591;42.626;23.380;2023-03-19T11:52:24;94470.47;;;23.07;32.11
11077;BME280;5591;42.626;23.380;2023-03-19T11:55:04;94478.13;;;21.61;31.63
11077;BME280;5591;42.626;23.380;2023-03-19T11:57:52;94449.94;;;20.73;32.75
11077;BME280;5591;42.626;23.380;2023-03-19T12:00:28;94465.22;;;20.77;32.56
11077;BME280;5591;42.626;23.380;2023-03-19T12:06:00;94448.16;;;20.95;32.91
11077;BME280;5591;42.626;23.380;2023-03-19T12:08:33;94451.94;;;23.42;32.16
11077;BME280;5591;42.626;23.380;2023-03-19T12:11:15;94440.69;;;24.46;29.41
11077;BME280;5591;42.626;23.380;2023-03-19T12:14:01;94472.34;;;26.17;28.78
11077;BME280;5591;42.626;23.380;2023-03-19T12:16:40;94440.31;;;27.68;26.88
11077;BME280;5591;42.626;23.380;2023-03-19T12:19:31;94432.66;;;24.86;27.32
11077;BME280;5591;42.626;23.380;2023-03-19T12:22:10;94444.75;;;23.57;29.00
11077;BME280;5591;42.626;23.380;2023-03-19T12:24:53;94432.44;;;23.05;29.78
11077;BME280;5591;42.626;23.380;2023-03-19T12:27:31;94431.44;;;23.77;29.09
11077;BME280;5591;42.626;23.380;2023-03-19T12:30:05;94423.47;;;25.22;28.49
11077;BME280;5591;42.626;23.380;2023-03-19T12:32:54;94422.16;;;27.55;27.12
11077;BME280;5591;42.626;23.380;2023-03-19T12:35:29;94397.91;;;26.98;25.77
11077;BME280;5591;42.626;23.380;2023-03-19T12:37:59;94406.66;;;28.63;25.06
11077;BME280;5591;42.626;23.380;2023-03-19T12:40:31;94438.63;;;28.19;25.97
11077;BME280;5591;42.626;23.380;2023-03-19T12:43:05;94408.06;;;28.42;25.54
11077;BME280;5591;42.626;23.380;2023-03-19T12:45:37;94408.47;;;29.58;24.93
11077;BME280;5591;42.626;23.380;2023-03-19T12:48:09;94410.97;;;29.82;24.64
11077;BME280;5591;42.626;23.380;2023-03-19T12:50:39;94405.03;;;28.25;24.86
11077;BME280;5591;42.626;23.380;2023-03-19T12:53:13;94414.06;;;25.20;27.14
11077;BME280;5591;42.626;23.380;2023-03-19T12:55:46;94411.78;;;26.58;26.26
11077;BME280;5591;42.626;23.380;2023-03-19T12:58:23;94412.97;;;27.33;25.60
11077;BME280;5591;42.626;23.380;2023-03-19T13:00:57;94412.97;;;25.16;26.63
11077;BME280;5591;42.626;23.380;2023-03-19T13:03:32;94404.47;;;26.64;26.75
11077;BME280;5591;42.626;23.380;2023-03-19T13:06:07;94396.22;;;28.57;25.36
11077;BME280;5591;42.626;23.380;2023-03-19T13:08:40;94390.28;;;29.99;24.33
11077;BME280;5591;42.626;23.380;2023-03-19T13:11:11;94382.81;;;28.33;23.88
11077;BME280;5591;42.626;23.380;2023-03-19T13:13:46;94390.53;;;27.37;25.29
11077;BME280;5591;42.626;23.380;2023-03-19T13:16:25;94390.38;;;28.81;24.58
11077;BME280;5591;42.626;23.380;2023-03-19T13:19:03;94393.84;;;29.59;24.14